Time;durP1;ratioP1;P1;durP2;ratioP2;P2;SDS_P1;SDS_P2;PMS_P1;PMS_P2;Temp;Humidity;BMP_temperature;BMP_pressure;BME280_temperature;BME280_humidity;BME280_pressure;Samples;Min_cycle;Max_cycle;Signal;HPM_P1;HPM_P2
2022/02/20 00:01:11;;;;;;;12.35;3.28;;;;;;;5.95;87.90;100806.66;5032686;28;20033;-43
2022/02/20 00:03:39;;;;;;;13.70;3.40;;;;;;;5.93;88.20;100811.44;5032146;28;20381;-45
2022/02/20 00:06:08;;;;;;;9.70;2.75;;;;;;;5.95;88.46;100828.28;5033455;28;20132;-44
2022/02/20 00:08:35;;;;;;;12.50;3.28;;;;;;;5.89;88.75;100837.34;5033342;28;20041;-43
2022/02/20 00:11:04;;;;;;;11.70;2.78;;;;;;;5.88;88.62;100818.63;5018401;28;20065;-42
2022/02/20 00:13:32;;;;;;;11.85;2.90;;;;;;;5.90;89.17;100830.03;5033010;28;20045;-42
2022/02/20 00:15:59;;;;;;;10.52;2.92;;;;;;;5.89;89.43;100840.03;5031883;28;20051;-42
2022/02/20 00:18:27;;;;;;;11.75;3.13;;;;;;;5.89;89.76;100848.16;5031377;28;20482;-44
2022/02/20 00:20:55;;;;;;;13.55;2.95;;;;;;;5.89;90.08;100848.16;5014100;28;20060;-44
2022/02/20 00:23:22;;;;;;;11.00;3.03;;;;;;;5.84;90.27;100868.84;5028228;28;20042;-43
2022/02/20 00:25:50;;;;;;;12.52;3.15;;;;;;;5.83;90.40;100862.59;5013552;28;20049;-43
2022/02/20 00:28:18;;;;;;;9.32;2.85;;;;;;;5.86;90.56;100883.75;5013277;28;20124;-42
2022/02/20 00:30:45;;;;;;;13.13;3.47;;;;;;;5.80;90.86;100892.81;5023754;28;20504;-42
2022/02/20 00:33:13;;;;;;;9.23;2.90;;;;;;;5.76;90.72;100905.16;5012975;28;20114;-43
2022/02/20 00:35:42;;;;;;;10.35;2.72;;;;;;;5.79;90.58;100903.88;5012145;28;20400;-40
2022/02/20 00:38:11;;;;;;;11.13;2.92;;;;;;;5.78;90.62;100924.69;5014183;28;20038;-41
2022/02/20 00:40:39;;;;;;;10.70;2.67;;;;;;;5.78;89.30;100935.50;5031556;28;20068;-43
2022/02/20 00:43:08;;;;;;;9.75;2.55;;;;;;;5.71;88.61;100957.22;5031155;28;20036;-41
2022/02/20 00:45:36;;;;;;;8.90;2.78;;;;;;;5.67;88.35;100952.50;5032572;28;20080;-40
2022/02/20 00:48:04;;;;;;;10.13;2.67;;;;;;;5.67;88.39;100974.13;5031731;28;20041;-43
2022/02/20 00:50:32;;;;;;;11.52;2.47;;;;;;;5.64;88.17;100966.50;4999111;28;20555;-41
2022/02/20 00:53:00;;;;;;;11.98;2.75;;;;;;;5.63;88.90;100959.44;5014226;28;20046;-41
2022/02/20 00:55:28;;;;;;;10.27;2.58;;;;;;;5.65;89.40;100978.94;5015690;28;20042;-40
2022/02/20 00:57:55;;;;;;;10.38;3.08;;;;;;;5.63;89.44;100981.03;5015718;28;20092;-40
2022/02/20 01:00:24;;;;;;;8.52;2.60;;;;;;;5.62;88.87;100984.81;5018387;28;20443;-40
2022/02/20 01:02:52;;;;;;;11.07;2.80;;;;;;;5.62;88.76;100990.22;5016551;28;20563;-41
2022/02/20 01:05:20;;;;;;;6.03;2.40;;;;;;;5.64;88.66;100993.53;5016455;28;20060;-43
2022/02/20 01:07:48;;;;;;;9.68;2.78;;;;;;;5.66;88.38;100991.41;5016768;28;20377;-40
2022/02/20 01:10:19;;;;;;;9.43;2.80;;;;;;;5.68;88.58;101010.94;5031458;28;20069;-41
2022/02/20 01:12:47;;;;;;;10.95;2.78;;;;;;;5.64;88.20;100993.53;5016737;28;20050;-41
2022/02/20 01:15:15;;;;;;;8.05;2.42;;;;;;;5.63;88.24;100999.97;5015974;28;20153;-40
2022/02/20 01:17:42;;;;;;;6.82;1.98;;;;;;;5.66;88.72;101010.34;5018384;28;20123;-40
2022/02/20 01:20:11;;;;;;;10.95;2.88;;;;;;;5.67;88.78;101009.28;5034284;28;20124;-41
2022/02/20 01:22:39;;;;;;;11.73;2.78;;;;;;;5.69;89.15;101007.16;5035077;28;20463;-40
2022/02/20 01:25:07;;;;;;;10.00;2.58;;;;;;;5.68;89.44;101008.25;5016701;28;20404;-41
2022/02/20 01:27:35;;;;;;;7.25;2.60;;;;;;;5.69;89.53;101017.97;5016578;28;20128;-41
2022/02/20 01:30:03;;;;;;;9.57;2.35;;;;;;;5.67;88.74;101028.19;5029469;28;20523;-41
2022/02/20 01:32:31;;;;;;;12.02;2.50;;;;;;;5.62;88.08;101022.66;5034451;28;20108;-42
2022/02/20 01:34:59;;;;;;;9.43;2.25;;;;;;;5.61;88.92;101023.72;5035827;28;20111;-42
2022/02/20 01:37:27;;;;;;;6.80;2.28;;;;;;;5.60;89.60;101030.16;5032165;28;20124;-43
2022/02/20 01:39:57;;;;;;;13.43;3.25;;;;;;;5.55;90.60;101028.97;5016035;28;20050;-41
2022/02/20 01:42:26;;;;;;;7.43;2.30;;;;;;;5.57;90.88;101042.28;5014981;28;20070;-42
2022/02/20 01:44:54;;;;;;;7.65;2.38;;;;;;;5.57;90.10;101046.84;5014358;28;20045;-43
2022/02/20 01:47:24;;;;;;;6.30;2.10;;;;;;;5.50;88.73;101046.94;4998511;28;20049;-43
2022/02/20 01:49:54;;;;;;;9.88;2.50;;;;;;;5.48;89.04;101047.19;5028927;28;20038;-44
2022/02/20 01:52:22;;;;;;;9.43;2.30;;;;;;;5.50;89.31;101053.16;5016032;28;20050;-43
2022/02/20 01:54:52;;;;;;;5.20;1.92;;;;;;;5.52;89.72;101045.66;5014548;28;20046;-44
2022/02/20 01:57:23;;;;;;;7.25;2.40;;;;;;;5.57;89.27;101041.44;5017739;28;20087;-44
2022/02/20 02:00:16;;;;;;;9.93;2.70;;;;;;;5.54;88.98;101046.25;5032628;28;20115;-43
2022/02/20 02:02:46;;;;;;;9.93;2.75;;;;;;;5.53;nan;101052.72;5034064;28;20385;-42
2022/02/20 02:05:47;;;;;;;8.68;2.00;;;;;;;5.52;88.94;101055.66;5038517;28;20049;-43
2022/02/20 02:08:16;;;;;;;8.68;1.83;;;;;;;5.53;88.87;101062.69;5032221;28;20420;-43
2022/02/20 02:11:02;;;;;;;6.82;1.80;;;;;;;5.55;88.18;101072.22;5017649;28;20038;-43
2022/02/20 02:13:43;;;;;;;9.52;2.30;;;;;;;5.55;88.27;101064.09;5014216;28;20385;-43
2022/02/20 02:16:30;;;;;;;7.30;2.10;;;;;;;5.58;88.78;101064.72;5014253;28;20049;-41
2022/02/20 02:19:16;;;;;;;6.88;2.10;;;;;;;5.61;89.04;101070.50;5015174;28;20476;-42
2022/02/20 02:21:48;;;;;;;9.48;2.45;;;;;;;5.67;89.53;101058.75;5015988;28;20128;-43
2022/02/20 02:24:48;;;;;;;6.90;2.10;;;;;;;5.69;88.36;101064.75;5014236;28;20053;-42
2022/02/20 02:27:42;;;;;;;5.13;1.88;;;;;;;5.66;88.45;101062.53;5013964;28;20516;-43
2022/02/20 02:30:29;;;;;;;7.38;2.20;;;;;;;5.66;88.46;101062.53;5016046;28;20124;-43
2022/02/20 02:32:57;;;;;;;10.68;2.30;;;;;;;5.68;88.74;101062.31;5014520;28;20443;-42
2022/02/20 02:35:24;;;;;;;6.43;2.00;;;;;;;5.71;88.70;101064.53;5013882;28;20638;-44
2022/02/20 02:37:53;;;;;;;8.25;2.50;;;;;;;5.72;88.98;101056.22;5013888;28;20041;-44
2022/02/20 02:40:22;;;;;;;12.02;2.53;;;;;;;5.76;88.77;101056.56;5014898;28;20033;-44
2022/02/20 02:42:51;;;;;;;8.13;2.17;;;;;;;5.80;89.00;101055.06;5029138;28;20125;-44
2022/02/20 02:45:23;;;;;;;8.55;2.30;;;;;;;5.85;88.70;101059.78;5013402;28;20042;-44
2022/02/20 02:47:52;;;;;;;9.13;2.30;;;;;;;5.87;88.80;101069.31;5013371;28;20046;-41
2022/02/20 02:50:24;;;;;;;5.30;2.00;;;;;;;5.89;88.88;101069.06;5020502;28;20037;-44
2022/02/20 02:52:56;;;;;;;8.73;2.50;;;;;;;5.89;88.94;101066.34;5010924;28;20041;-41
2022/02/20 02:55:25;;;;;;;6.57;2.35;;;;;;;5.90;88.99;101055.31;5015427;28;20497;-41
2022/02/20 02:57:52;;;;;;;9.32;2.80;;;;;;;5.90;88.88;101055.31;5013598;28;20489;-43
2022/02/20 03:00:20;;;;;;;8.07;2.53;;;;;;;5.88;88.32;101057.41;4997369;28;20113;-43
2022/02/20 03:02:48;;;;;;;8.38;2.35;;;;;;;5.86;88.29;101054.13;5012943;28;20510;-42
2022/02/20 03:05:16;;;;;;;9.75;2.75;;;;;;;5.86;88.14;101046.00;5014429;28;20410;-43
2022/02/20 03:07:44;;;;;;;10.27;2.50;;;;;;;5.89;87.55;101042.00;5013195;28;20056;-43
2022/02/20 03:10:12;;;;;;;5.18;2.22;;;;;;;5.88;87.51;101049.31;5013221;28;20061;-43
2022/02/20 03:12:41;;;;;;;9.88;2.58;;;;;;;5.90;87.04;101055.31;5017254;28;20053;-45
2022/02/20 03:15:10;;;;;;;11.07;2.58;;;;;;;5.91;86.89;101054.25;5013430;28;20120;-46
2022/02/20 03:17:41;;;;;;;9.70;2.90;;;;;;;5.91;86.92;101056.13;5015746;28;20100;-44
2022/02/20 03:20:10;;;;;;;7.28;2.25;;;;;;;5.90;86.82;101063.41;5019018;28;20049;-44
2022/02/20 03:22:42;;;;;;;6.97;1.88;;;;;;;5.90;86.89;101058.00;5032211;28;20088;-43
2022/02/20 03:25:10;;;;;;;9.25;2.45;;;;;;;5.90;87.00;101058.00;5032622;28;20072;-42
2022/02/20 03:27:40;;;;;;;8.88;2.20;;;;;;;5.89;86.87;101060.94;5032535;28;20037;-44
2022/02/20 03:30:14;;;;;;;10.38;2.60;;;;;;;5.88;86.82;101053.91;5030166;28;20045;-42
2022/02/20 03:32:47;;;;;;;9.52;2.55;;;;;;;5.88;86.83;101070.13;5012451;28;20576;-43
2022/02/20 03:35:19;;;;;;;8.60;2.70;;;;;;;5.88;86.47;101056.59;5029386;28;20042;-40
2022/02/20 03:37:47;;;;;;;8.38;2.60;;;;;;;5.87;86.48;101039.56;4996821;28;20050;-40
2022/02/20 03:40:17;;;;;;;7.43;2.15;;;;;;;5.90;86.40;101035.56;5012831;28;20046;-41
2022/02/20 03:42:45;;;;;;;6.88;2.00;;;;;;;5.88;86.15;101030.38;5028476;28;20568;-42
2022/02/20 03:45:30;;;;;;;9.57;2.13;;;;;;;5.85;86.39;101028.13;5032041;28;20049;-43
2022/02/20 03:47:58;;;;;;;8.55;2.10;;;;;;;5.87;86.50;101022.47;5012718;28;20415;-43
2022/02/20 03:50:26;;;;;;;6.72;1.90;;;;;;;5.88;86.30;101018.75;5012607;28;20084;-42
2022/02/20 03:52:58;;;;;;;8.38;2.05;;;;;;;5.88;86.25;101016.84;5013631;28;20037;-42
2022/02/20 03:55:28;;;;;;;7.78;2.47;;;;;;;5.92;86.51;101017.22;5013435;28;20046;-42
2022/02/20 03:57:57;;;;;;;6.78;2.10;;;;;;;5.92;86.96;101017.22;5016263;28;20069;-40
2022/02/20 04:00:30;;;;;;;9.02;2.63;;;;;;;5.90;86.85;101008.53;5013155;28;20473;-43
2022/02/20 04:03:25;;;;;;;9.10;2.40;;;;;;;5.88;87.10;101008.75;5022124;28;20124;-42
2022/02/20 04:05:55;;;;;;;7.18;2.05;;;;;;;5.91;87.46;101010.97;5012018;28;20136;-42
2022/02/20 04:08:25;;;;;;;5.72;2.13;;;;;;;5.91;87.76;101015.56;5012379;28;20034;-42
2022/02/20 04:11:01;;;;;;;8.02;2.58;;;;;;;5.89;87.63;101013.09;5031642;28;20041;-40
2022/02/20 04:13:44;;;;;;;10.15;2.75;;;;;;;5.89;87.56;101005.00;5019594;28;20049;-42
2022/02/20 04:16:17;;;;;;;6.90;2.70;;;;;;;5.89;87.35;101009.56;5013170;28;20037;-43
2022/02/20 04:18:52;;;;;;;6.97;2.72;;;;;;;5.87;87.65;101004.41;4997126;28;20088;-43
2022/02/20 04:21:21;;;;;;;7.75;2.80;;;;;;;5.84;87.46;101004.84;5013291;28;20463;-41
2022/02/20 04:23:54;;;;;;;8.38;2.88;;;;;;;5.84;87.36;100999.44;5012010;28;20046;-39
2022/02/20 04:26:22;;;;;;;10.55;3.00;;;;;;;5.86;87.60;100997.31;5012066;28;20053;-40
2022/02/20 04:28:51;;;;;;;6.38;3.13;;;;;;;5.88;87.04;100989.81;5016302;28;20471;-40
2022/02/20 04:31:18;;;;;;;8.05;3.05;;;;;;;5.86;87.35;100991.09;5016055;28;20068;-41
2022/02/20 04:33:51;;;;;;;8.35;3.22;;;;;;;5.86;87.35;100978.41;5026107;28;20077;-40
2022/02/20 04:36:18;;;;;;;8.02;3.13;;;;;;;5.88;87.56;100961.94;5016056;28;20108;-39
2022/02/20 04:38:52;;;;;;;9.13;3.35;;;;;;;5.92;88.33;100953.16;5015902;28;20044;-40
2022/02/20 04:41:22;;;;;;;7.57;3.50;;;;;;;5.93;87.79;100949.38;5015907;28;20061;-40
2022/02/20 04:43:50;;;;;;;5.90;2.95;;;;;;;5.93;88.14;100949.38;5015538;28;20034;-40
2022/02/20 04:46:19;;;;;;;9.43;3.50;;;;;;;5.94;88.29;100951.06;5016666;28;20046;-40
2022/02/20 04:48:46;;;;;;;10.48;3.67;;;;;;;5.94;88.01;100948.34;5017218;28;20081;-40
2022/02/20 04:51:52;;;;;;;7.38;3.13;;;;;;;5.95;88.24;100922.94;5012107;28;20045;-43
2022/02/20 04:54:40;;;;;;;10.65;3.63;;;;;;;5.93;88.18;100916.91;5016703;28;20100;-43
2022/02/20 04:57:08;;;;;;;9.10;3.28;;;;;;;5.91;87.91;100912.81;5015610;28;20104;-43
2022/02/20 04:59:36;;;;;;;8.93;3.15;;;;;;;5.92;88.39;100917.16;5023471;28;20042;-42
2022/02/20 05:02:04;;;;;;;8.27;3.20;;;;;;;5.94;88.43;100915.06;5015994;28;20092;-43
2022/02/20 05:04:37;;;;;;;11.35;4.38;;;;;;;5.92;88.29;100915.28;5016695;28;20045;-43
2022/02/20 05:07:07;;;;;;;11.10;3.97;;;;;;;5.92;88.58;100907.16;5015657;28;20042;-42
2022/02/20 05:09:39;;;;;;;9.32;4.00;;;;;;;5.93;88.25;100905.28;4999953;28;20046;-44
2022/02/20 05:12:06;;;;;;;12.05;4.00;;;;;;;5.91;88.26;100902.81;5025529;28;20095;-43
2022/02/20 05:14:35;;;;;;;9.68;3.80;;;;;;;5.84;88.75;100896.69;5021241;28;20033;-42
2022/02/20 05:17:25;;;;;;;14.13;4.22;;;;;;;5.81;88.92;100880.13;5013109;28;20592;-42
2022/02/20 05:19:58;;;;;;;9.00;4.00;;;;;;;5.81;90.14;100872.84;5015222;28;20073;-40
2022/02/20 05:22:26;;;;;;;9.15;3.70;;;;;;;5.75;90.48;100865.69;5018263;28;20042;-42
2022/02/20 05:24:57;;;;;;;7.95;3.28;;;;;;;5.76;91.15;100861.91;5015483;28;20046;-40
2022/02/20 05:27:30;;;;;;;12.48;4.20;;;;;;;5.75;91.25;100860.28;5015081;28;20045;-44
2022/02/20 05:29:58;;;;;;;9.45;3.95;;;;;;;5.73;91.79;100860.50;5010281;28;20427;-42
2022/02/20 05:32:30;;;;;;;10.50;4.18;;;;;;;5.74;92.04;100853.19;5033967;28;20050;-42
2022/02/20 05:35:16;;;;;;;10.27;4.30;;;;;;;5.73;92.55;100843.47;5034146;28;20042;-42
2022/02/20 05:37:49;;;;;;;9.82;4.10;;;;;;;5.76;92.65;100826.75;5034782;28;20037;-42
2022/02/20 05:40:21;;;;;;;7.23;3.17;;;;;;;5.81;92.35;100810.66;5035770;28;20038;-42
2022/02/20 05:42:57;;;;;;;8.73;3.13;;;;;;;5.71;93.20;100799.59;5030595;28;20046;-42
2022/02/20 05:45:27;;;;;;;11.98;3.85;;;;;;;5.70;93.93;100779.88;5026241;28;20130;-43
2022/02/20 05:47:58;;;;;;;13.75;4.50;;;;;;;5.69;94.93;100761.19;5014984;28;20134;-43
2022/02/20 05:50:29;;;;;;;13.52;4.55;;;;;;;5.71;95.28;100746.38;5014629;28;20096;-43
2022/02/20 05:52:58;;;;;;;7.03;2.80;;;;;;;5.72;96.25;100741.78;5015484;28;20042;-41
2022/02/20 05:55:29;;;;;;;4.65;1.60;;;;;;;5.86;98.33;100726.94;5015289;28;20049;-43
2022/02/20 05:57:57;;;;;;;4.07;1.48;;;;;;;6.08;99.47;100720.91;5014500;28;20038;-44
2022/02/20 06:00:35;;;;;;;13.15;4.40;;;;;;;6.17;96.78;100703.22;5016044;28;20104;-44
2022/02/20 06:03:04;;;;;;;2.35;1.35;;;;;;;6.46;100.00;100697.81;5030855;28;20121;-44
2022/02/20 06:05:39;;;;;;;10.40;3.13;;;;;;;6.91;97.91;100684.22;5017359;28;20113;-45
2022/02/20 06:08:39;;;;;;;6.50;1.67;;;;;;;6.80;97.35;100688.63;5035782;28;20060;-42
2022/02/20 06:11:15;;;;;;;3.00;1.77;;;;;;;7.20;97.73;100684.91;5015274;28;20066;-42
2022/02/20 06:13:51;;;;;;;3.85;1.73;;;;;;;7.30;96.43;100667.16;5015134;28;20041;-43
2022/02/20 06:16:38;;;;;;;4.03;1.52;;;;;;;7.43;96.46;100672.22;5014024;28;20069;-43
2022/02/20 06:19:38;;;;;;;8.85;2.58;;;;;;;7.86;94.37;100668.72;5027935;28;20512;-42
2022/02/20 06:22:29;;;;;;;10.73;2.58;;;;;;;7.76;93.65;100656.91;5013598;28;20061;-43
2022/02/20 06:25:09;;;;;;;8.80;2.17;;;;;;;8.10;93.19;100662.97;5014220;28;20125;-46
2022/02/20 06:27:50;;;;;;;9.55;3.20;;;;;;;8.23;93.23;100667.19;5028032;28;20103;-44
2022/02/20 06:30:25;;;;;;;11.20;3.40;;;;;;;7.83;93.99;100665.66;5014324;28;20049;-42
2022/02/20 06:32:53;;;;;;;6.78;2.72;;;;;;;7.54;95.71;100663.16;5029470;28;20081;-43
2022/02/20 06:35:21;;;;;;;8.55;2.60;;;;;;;7.73;98.02;100657.41;5013317;28;20104;-43
2022/02/20 06:37:50;;;;;;;13.27;3.85;;;;;;;7.97;96.51;100658.78;4997916;28;20124;-43
2022/02/20 06:40:20;;;;;;;9.73;3.22;;;;;;;7.86;96.19;100659.72;5013797;28;20060;-44
2022/02/20 06:42:51;;;;;;;12.80;3.78;;;;;;;7.95;96.08;100660.09;5013593;28;20543;-44
2022/02/20 06:45:21;;;;;;;7.15;2.67;;;;;;;8.04;97.43;100659.41;5033180;28;20056;-44
2022/02/20 06:48:24;;;;;;;13.93;4.80;;;;;;;7.60;97.59;100650.47;5033199;28;20041;-43
2022/02/20 06:51:03;;;;;;;9.82;3.03;;;;;;;7.66;99.26;100650.28;5015955;28;20041;-42
2022/02/20 06:53:39;;;;;;;14.50;4.35;;;;;;;7.60;98.51;100659.44;5031250;28;20042;-41
2022/02/20 06:56:16;;;;;;;15.63;4.43;;;;;;;7.72;100.00;100655.75;5033088;28;20045;-44
2022/02/20 06:58:44;;;;;;;6.65;2.53;;;;;;;7.52;100.00;100649.03;5033915;28;20076;-43
2022/02/20 07:01:11;;;;;;;6.47;2.05;;;;;;;7.68;100.00;100650.03;5020104;28;20042;-44
2022/02/20 07:03:39;;;;;;;10.82;3.05;;;;;;;7.75;100.00;100650.66;5013939;28;20587;-46
2022/02/20 07:06:08;;;;;;;15.45;4.07;;;;;;;7.52;100.00;100642.78;5015128;28;20049;-43
2022/02/20 07:08:36;;;;;;;10.30;3.60;;;;;;;7.21;100.00;100651.31;5014184;28;20050;-45
2022/02/20 07:11:04;;;;;;;15.15;4.60;;;;;;;7.14;100.00;100656.09;5026987;28;20492;-45
2022/02/20 07:13:32;;;;;;;7.30;2.67;;;;;;;7.15;100.00;100655.03;4331589;28;10000029;-42
2022/02/20 07:15:59;;;;;;;11.57;4.00;;;;;;;7.14;100.00;100656.09;5028500;28;20036;-43
2022/02/20 07:18:28;;;;;;;12.73;3.78;;;;;;;7.16;100.00;100659.38;5029448;28;20045;-44
2022/02/20 07:20:56;;;;;;;17.88;4.70;;;;;;;7.01;100.00;100657.28;5016844;28;20049;-42
2022/02/20 07:23:23;;;;;;;12.70;3.45;;;;;;;7.03;100.00;100649.72;5011270;28;20046;-45
2022/02/20 07:25:51;;;;;;;17.27;4.30;;;;;;;7.00;100.00;100654.84;5011680;28;20053;-44
2022/02/20 07:28:19;;;;;;;12.48;4.20;;;;;;;6.95;100.00;100657.44;5010719;28;20042;-44
2022/02/20 07:30:46;;;;;;;10.65;3.30;;;;;;;7.01;100.00;100649.16;5011859;28;20053;-44
2022/02/20 07:33:16;;;;;;;14.90;3.53;;;;;;;6.96;100.00;100637.44;5010408;28;20064;-42
2022/02/20 07:35:44;;;;;;;12.13;3.95;;;;;;;6.94;100.00;100647.69;5011300;28;20504;-43
2022/02/20 07:38:12;;;;;;;9.48;3.58;;;;;;;6.98;100.00;100643.41;5010685;28;20046;-44
2022/02/20 07:40:39;;;;;;;10.35;3.20;;;;;;;7.01;100.00;100656.47;5023460;28;20547;-44
2022/02/20 07:43:07;;;;;;;10.45;3.08;;;;;;;7.03;100.00;100651.63;5012285;28;20048;-42
2022/02/20 07:45:36;;;;;;;8.82;2.97;;;;;;;7.15;100.00;100641.50;5011164;28;20393;-44
2022/02/20 07:48:04;;;;;;;9.32;3.40;;;;;;;7.16;100.00;100648.53;5010630;28;20076;-44
2022/02/20 07:50:33;;;;;;;8.88;2.88;;;;;;;7.20;100.00;100641.56;5018646;28;20045;-44
2022/02/20 07:53:03;;;;;;;8.07;2.72;;;;;;;7.30;100.00;100640.88;5009641;28;20074;-46
2022/02/20 07:55:31;;;;;;;8.10;2.80;;;;;;;7.28;100.00;100639.50;5010040;28;20045;-46
2022/02/20 07:58:03;;;;;;;7.30;2.60;;;;;;;7.32;100.00;100635.22;5030436;28;20069;-44
2022/02/20 08:00:31;;;;;;;8.60;2.80;;;;;;;7.41;100.00;100628.31;5024049;28;20168;-44
2022/02/20 08:02:59;;;;;;;6.82;2.80;;;;;;;7.41;100.00;100612.84;5009295;28;20100;-44
2022/02/20 08:05:28;;;;;;;6.32;2.35;;;;;;;7.55;100.00;100624.13;5018206;28;20559;-44
2022/02/20 08:07:55;;;;;;;6.93;2.42;;;;;;;7.50;100.00;100621.34;5029060;28;20052;-44
2022/02/20 08:10:23;;;;;;;6.95;2.55;;;;;;;7.60;100.00;100610.63;5014520;28;20049;-41
2022/02/20 08:12:52;;;;;;;9.77;2.92;;;;;;;7.58;100.00;100610.06;5009963;28;20144;-43
2022/02/20 08:15:19;;;;;;;7.55;2.78;;;;;;;7.58;100.00;100614.69;5010783;28;20037;-43
2022/02/20 08:17:48;;;;;;;8.02;2.70;;;;;;;7.50;100.00;100610.50;5008643;28;20696;-45
2022/02/20 08:20:17;;;;;;;10.68;3.10;;;;;;;7.56;100.00;100612.22;5024366;28;20041;-45
2022/02/20 08:22:46;;;;;;;8.30;3.00;;;;;;;7.52;100.00;100618.38;5028522;28;20056;-44
2022/02/20 08:25:14;;;;;;;16.77;4.15;;;;;;;7.68;100.00;100607.47;5018603;28;20038;-44
2022/02/20 08:27:46;;;;;;;8.95;3.35;;;;;;;7.71;100.00;100594.47;5008857;28;20109;-47
2022/02/20 08:30:15;;;;;;;8.70;3.20;;;;;;;7.73;100.00;100605.91;5015997;28;20038;-45
2022/02/20 08:32:43;;;;;;;15.95;3.95;;;;;;;7.71;100.00;100605.31;5009797;28;20381;-43
2022/02/20 08:35:11;;;;;;;9.07;2.90;;;;;;;7.65;100.00;100597.13;5028259;28;20440;-42
2022/02/20 08:37:43;;;;;;;9.13;3.45;;;;;;;7.63;100.00;100601.19;5031515;28;20121;-43
2022/02/20 08:40:12;;;;;;;14.55;4.47;;;;;;;7.67;100.00;100596.88;4990126;28;20369;-46
2022/02/20 08:42:40;;;;;;;7.50;3.00;;;;;;;7.74;100.00;100596.66;5012980;28;20042;-43
2022/02/20 08:45:08;;;;;;;8.50;3.08;;;;;;;7.71;100.00;100619.69;5011652;28;20120;-44
2022/02/20 08:47:36;;;;;;;7.35;2.50;;;;;;;7.74;100.00;100621.06;5013080;28;20556;-44
2022/02/20 08:50:05;;;;;;;13.13;3.85;;;;;;;7.78;100.00;100619.50;5013947;28;20515;-42
2022/02/20 08:52:33;;;;;;;13.15;3.80;;;;;;;7.81;100.00;100613.56;5011862;28;20042;-43
2022/02/20 08:55:01;;;;;;;12.55;4.47;;;;;;;7.79;100.00;100613.00;5011738;28;20122;-43
2022/02/20 08:57:29;;;;;;;19.60;6.05;;;;;;;7.81;100.00;100602.72;5012834;28;20052;-45
2022/02/20 08:59:58;;;;;;;9.05;3.40;;;;;;;7.89;100.00;100588.72;5028909;28;20037;-44
2022/02/20 09:02:26;;;;;;;10.80;4.05;;;;;;;7.93;100.00;100583.59;5032715;28;20381;-44
2022/02/20 09:04:54;;;;;;;15.13;4.90;;;;;;;8.00;100.00;100587.72;5032757;28;20404;-44
2022/02/20 09:07:22;;;;;;;12.95;4.13;;;;;;;7.94;100.00;100577.06;5032615;28;20049;-44
2022/02/20 09:09:50;;;;;;;32.38;9.98;;;;;;;8.02;100.00;100580.16;5030892;28;20059;-44
2022/02/20 09:12:17;;;;;;;21.27;6.53;;;;;;;8.10;100.00;100582.41;5032479;28;20048;-43
2022/02/20 09:14:45;;;;;;;12.30;3.92;;;;;;;8.35;100.00;100589.13;5033606;28;20041;-45
2022/02/20 09:17:13;;;;;;;10.55;3.28;;;;;;;8.19;100.00;100584.66;5036219;28;20086;-46
2022/02/20 09:19:40;;;;;;;10.73;3.92;;;;;;;8.23;100.00;100580.34;5019517;28;20069;-45
2022/02/20 09:22:10;;;;;;;11.88;3.70;;;;;;;8.20;100.00;100587.13;5016651;28;20492;-42
2022/02/20 09:24:38;;;;;;;16.23;4.90;;;;;;;8.21;100.00;100579.78;5016363;28;20045;-41
2022/02/20 09:27:05;;;;;;;14.93;4.78;;;;;;;8.29;100.00;100579.28;5016387;28;20515;-43
2022/02/20 09:29:35;;;;;;;16.30;4.22;;;;;;;8.24;100.00;100581.97;5024037;28;20033;-43
2022/02/20 09:32:06;;;;;;;19.48;5.00;;;;;;;8.27;100.00;100581.44;5016748;28;20038;-43
2022/02/20 09:34:34;;;;;;;20.90;6.97;;;;;;;8.39;100.00;100590.22;5016072;28;20068;-41
2022/02/20 09:37:02;;;;;;;17.05;5.55;;;;;;;8.32;100.00;100579.63;5016258;28;20575;-40
2022/02/20 09:39:29;;;;;;;18.10;5.72;;;;;;;8.41;100.00;100576.44;5016214;28;20069;-41
2022/02/20 09:41:58;;;;;;;16.95;4.57;;;;;;;8.43;100.00;100571.56;5025556;28;20083;-40
2022/02/20 09:44:27;;;;;;;18.27;5.47;;;;;;;8.53;100.00;100561.59;5034590;28;20128;-40
2022/02/20 09:46:55;;;;;;;19.25;5.65;;;;;;;8.70;100.00;100568.78;5035460;28;20489;-41
2022/02/20 09:49:27;;;;;;;19.88;5.70;;;;;;;8.62;100.00;100564.66;5018074;28;20048;-44
2022/02/20 09:51:55;;;;;;;19.17;5.18;;;;;;;8.62;100.00;100566.56;5034413;28;20045;-43
2022/02/20 09:54:23;;;;;;;20.70;5.25;;;;;;;8.56;100.00;100567.59;5034318;28;20507;-43
2022/02/20 09:56:51;;;;;;;19.45;5.43;;;;;;;8.55;100.00;100560.53;5034261;28;20559;-44
2022/02/20 09:59:19;;;;;;;16.73;5.07;;;;;;;8.66;100.00;100568.50;5035227;28;20076;-44
2022/02/20 10:02:06;;;;;;;20.42;6.13;;;;;;;8.76;100.00;100570.44;5035455;28;20045;-44
2022/02/20 10:04:54;;;;;;;23.58;6.82;;;;;;;8.80;100.00;100566.09;5035428;28;20397;-44
2022/02/20 10:07:34;;;;;;;21.05;5.70;;;;;;;8.90;100.00;100549.88;5033595;28;20516;-44
2022/02/20 10:10:06;;;;;;;18.75;6.03;;;;;;;9.03;100.00;100545.06;5050495;28;20087;-43
2022/02/20 10:12:35;;;;;;;19.33;6.20;;;;;;;8.86;100.00;100540.63;5033980;28;20034;-44
2022/02/20 10:15:04;;;;;;;19.35;5.78;;;;;;;8.86;100.00;100548.78;5034946;28;20077;-40
2022/02/20 10:17:32;;;;;;;20.83;6.85;;;;;;;9.01;100.00;100539.06;5033733;28;20492;-40
2022/02/20 10:20:26;;;;;;;22.92;5.68;;;;;;;8.99;100.00;100552.09;5033772;28;20042;-43
2022/02/20 10:23:14;;;;;;;19.42;5.93;;;;;;;9.00;100.00;100551.03;5034078;28;20092;-44
2022/02/20 10:26:11;;;;;;;20.25;6.13;;;;;;;8.81;100.00;100547.94;5033949;28;20045;-44
2022/02/20 10:29:21;;;;;;;19.88;5.70;;;;;;;8.92;100.00;100544.16;5032829;28;20459;-44
2022/02/20 10:31:50;;;;;;;23.95;6.45;;;;;;;8.83;100.00;100546.59;5020727;28;20068;-44
2022/02/20 10:34:25;;;;;;;18.23;5.63;;;;;;;8.83;100.00;100543.88;5029863;28;20054;-46
2022/02/20 10:36:53;;;;;;;23.02;6.05;;;;;;;8.78;100.00;100548.44;5014740;28;20041;-44
2022/02/20 10:39:25;;;;;;;18.58;4.85;;;;;;;8.81;100.00;100556.91;5014705;28;20049;-43
2022/02/20 10:41:55;;;;;;;21.42;5.70;;;;;;;8.94;100.00;100550.97;5013466;28;20508;-43
2022/02/20 10:44:23;;;;;;;21.90;5.40;;;;;;;9.04;100.00;100546.69;5014518;28;20037;-43
2022/02/20 10:47:09;;;;;;;20.83;5.55;;;;;;;9.00;100.00;100551.03;5014665;28;20095;-45
2022/02/20 10:49:36;;;;;;;24.05;6.30;;;;;;;8.92;100.00;100561.31;5014576;28;20408;-45
2022/02/20 10:52:04;;;;;;;27.25;6.80;;;;;;;8.87;100.00;100563.97;5013291;28;20411;-44
2022/02/20 10:54:32;;;;;;;22.05;6.32;;;;;;;8.87;100.00;100547.69;5014703;28;20038;-44
2022/02/20 10:57:00;;;;;;;27.70;6.63;;;;;;;8.85;100.00;100559.88;5025380;28;20040;-43
2022/02/20 10:59:47;;;;;;;27.17;6.70;;;;;;;8.88;100.00;100560.19;5033058;28;20137;-45
2022/02/20 11:02:19;;;;;;;27.88;6.40;;;;;;;8.91;100.00;100553.41;5033051;28;20049;-45
2022/02/20 11:04:47;;;;;;;27.88;7.00;;;;;;;8.91;100.00;100567.00;5034075;28;20042;-45
2022/02/20 11:07:16;;;;;;;24.17;6.72;;;;;;;9.02;100.00;100559.72;5033028;28;20120;-42
2022/02/20 11:09:45;;;;;;;27.38;6.10;;;;;;;9.03;100.00;100572.22;5021227;28;20080;-43
2022/02/20 11:12:13;;;;;;;22.70;6.70;;;;;;;8.96;100.00;100546.09;5013049;28;20484;-44
2022/02/20 11:14:43;;;;;;;27.25;6.07;;;;;;;8.98;100.00;100564.06;5012799;28;20046;-43
2022/02/20 11:17:11;;;;;;;16.05;4.65;;;;;;;9.00;100.00;100551.03;5028730;28;20121;-45
2022/02/20 11:19:39;;;;;;;22.70;6.70;;;;;;;9.00;100.00;100546.41;5032904;28;20045;-46
2022/02/20 11:22:08;;;;;;;16.42;4.32;;;;;;;9.02;100.00;100551.56;5032071;28;20408;-45
2022/02/20 11:24:37;;;;;;;21.65;5.45;;;;;;;9.04;100.00;100557.56;5014531;28;20034;-41
2022/02/20 11:27:06;;;;;;;24.15;6.50;;;;;;;9.01;100.00;100533.63;5014206;28;20037;-43
2022/02/20 11:29:34;;;;;;;23.98;6.88;;;;;;;8.96;100.00;100535.22;5012864;28;20042;-41
2022/02/20 11:32:05;;;;;;;25.05;6.57;;;;;;;8.91;100.00;100537.94;5014471;28;20117;-41
2022/02/20 11:34:33;;;;;;;21.13;4.97;;;;;;;9.05;100.00;100518.44;5014452;28;20050;-45
2022/02/20 11:37:01;;;;;;;24.05;6.63;;;;;;;9.04;100.00;100524.94;5012877;28;20105;-44
2022/02/20 11:39:29;;;;;;;23.00;6.32;;;;;;;8.99;100.00;100527.63;5013766;28;20065;-44
2022/02/20 11:42:10;;;;;;;26.38;7.63;;;;;;;8.98;100.00;100515.16;5013738;28;20045;-45
2022/02/20 11:44:49;;;;;;;20.50;5.88;;;;;;;9.00;100.00;100508.34;5014899;28;20044;-43
2022/02/20 11:47:35;;;;;;;25.00;7.00;;;;;;;8.99;100.00;100516.75;5019499;28;20037;-42